createdAt,value
2022-12-29T00:01:42.965Z,8.10
2022-12-29T00:04:14.478Z,8.20
2022-12-29T00:06:41.608Z,8.20
2022-12-29T00:09:08.135Z,8.30
2022-12-29T00:11:34.658Z,8.30
2022-12-29T00:14:25.705Z,8.30
2022-12-29T00:16:52.756Z,8.40
2022-12-29T00:19:38.066Z,8.40
2022-12-29T00:22:23.521Z,8.50
2022-12-29T00:25:08.780Z,8.50
2022-12-29T00:27:54.071Z,8.50
2022-12-29T00:30:39.447Z,8.60
2022-12-29T00:33:24.590Z,8.60
2022-12-29T00:35:51.105Z,8.60
2022-12-29T00:38:36.592Z,8.60
2022-12-29T00:41:21.952Z,8.60
2022-12-29T00:44:06.916Z,8.60
2022-12-29T00:46:33.814Z,8.60
2022-12-29T00:49:19.134Z,8.60
2022-12-29T00:51:45.771Z,8.70
2022-12-29T00:54:12.252Z,8.60
2022-12-29T00:56:38.758Z,8.60
2022-12-29T00:59:05.274Z,8.70
2022-12-29T01:01:31.983Z,8.80
2022-12-29T01:04:02.157Z,8.80
2022-12-29T01:06:30.729Z,8.80
2022-12-29T01:09:15.917Z,8.80
2022-12-29T01:11:42.821Z,8.80
2022-12-29T01:14:09.305Z,8.90
2022-12-29T01:16:37.291Z,8.90
2022-12-29T01:19:03.860Z,8.90
2022-12-29T01:21:30.412Z,8.90
2022-12-29T01:23:56.971Z,8.90
2022-12-29T01:26:23.472Z,8.90
2022-12-29T01:28:50.078Z,8.80
2022-12-29T01:31:16.654Z,8.80
2022-12-29T01:33:43.215Z,8.80
2022-12-29T01:36:09.822Z,8.80
2022-12-29T01:38:36.332Z,8.70
2022-12-29T01:41:02.828Z,8.70
2022-12-29T01:43:29.395Z,8.80
2022-12-29T01:45:56.264Z,8.80
2022-12-29T01:48:23.030Z,8.80
2022-12-29T01:50:49.667Z,8.90
2022-12-29T01:53:16.184Z,8.90
2022-12-29T01:55:44.963Z,8.90
2022-12-29T01:58:11.520Z,8.90
2022-12-29T02:00:38.100Z,8.90
2022-12-29T02:03:04.736Z,8.80
2022-12-29T02:05:31.243Z,8.80
2022-12-29T02:07:57.799Z,8.80
2022-12-29T02:10:24.327Z,8.90
2022-12-29T02:12:50.871Z,8.80
2022-12-29T02:15:17.387Z,8.90
2022-12-29T02:17:44.875Z,9.00
2022-12-29T02:20:11.404Z,9.10
2022-12-29T02:22:37.922Z,9.10
2022-12-29T02:25:04.469Z,9.10
2022-12-29T02:27:31.006Z,9.20
2022-12-29T02:29:57.566Z,9.20
2022-12-29T02:32:24.087Z,9.20
2022-12-29T02:34:50.772Z,9.20
2022-12-29T02:37:17.339Z,9.20
2022-12-29T02:39:44.736Z,9.20
2022-12-29T02:42:11.280Z,9.20
2022-12-29T02:44:37.800Z,9.20
2022-12-29T02:47:04.403Z,9.20
2022-12-29T02:49:33.225Z,9.20
2022-12-29T02:52:00.601Z,9.20
2022-12-29T02:54:42.460Z,9.20
2022-12-29T02:57:09.036Z,9.10
2022-12-29T02:59:35.605Z,9.20
2022-12-29T03:02:17.757Z,9.10
2022-12-29T03:04:44.505Z,9.20
2022-12-29T03:07:11.065Z,9.20
2022-12-29T03:09:37.614Z,9.20
2022-12-29T03:12:10.488Z,9.20
2022-12-29T03:14:55.916Z,9.20
2022-12-29T03:17:22.420Z,9.20
2022-12-29T03:19:48.970Z,9.30
2022-12-29T03:22:27.831Z,9.30
2022-12-29T03:24:54.330Z,9.40
2022-12-29T03:27:20.926Z,9.40
2022-12-29T03:29:47.633Z,9.30
2022-12-29T03:32:14.204Z,9.40
2022-12-29T03:34:40.698Z,9.40
2022-12-29T03:37:07.230Z,9.40
2022-12-29T03:39:33.966Z,9.40
2022-12-29T03:42:00.535Z,9.40
2022-12-29T03:44:27.071Z,9.40
2022-12-29T03:46:53.569Z,9.50
2022-12-29T03:49:20.057Z,9.50
2022-12-29T03:51:46.577Z,9.50
2022-12-29T03:54:13.095Z,9.60
2022-12-29T03:56:39.691Z,9.60
2022-12-29T03:59:06.225Z,9.60
2022-12-29T04:01:33.952Z,9.60
2022-12-29T04:04:00.989Z,9.60
2022-12-29T04:06:27.480Z,9.50
2022-12-29T04:08:54.016Z,9.40
2022-12-29T04:11:20.517Z,9.40
2022-12-29T04:13:47.150Z,9.30
2022-12-29T04:16:13.759Z,9.20
2022-12-29T04:18:40.340Z,9.10
2022-12-29T04:21:06.861Z,9.10
2022-12-29T04:23:34.258Z,9.00
2022-12-29T04:26:00.811Z,9.00
2022-12-29T04:28:27.297Z,9.00
2022-12-29T04:30:54.059Z,8.90
2022-12-29T04:33:20.615Z,9.00
2022-12-29T04:35:47.393Z,8.90
2022-12-29T04:38:13.865Z,9.00
2022-12-29T04:40:40.870Z,9.00
2022-12-29T04:43:07.372Z,9.10
2022-12-29T04:45:34.202Z,9.20
2022-12-29T04:48:01.155Z,9.20
2022-12-29T04:50:27.667Z,9.20
2022-12-29T04:52:54.158Z,9.30
2022-12-29T04:55:20.669Z,9.30
2022-12-29T04:57:47.257Z,9.40
2022-12-29T05:00:14.435Z,9.40
2022-12-29T05:02:41.156Z,9.50
2022-12-29T05:05:07.777Z,9.60
2022-12-29T05:07:34.454Z,9.60
2022-12-29T05:10:01.115Z,9.60
2022-12-29T05:12:27.649Z,9.50
2022-12-29T05:14:54.139Z,9.50
2022-12-29T05:17:20.658Z,9.50
2022-12-29T05:19:47.153Z,9.60
2022-12-29T05:22:13.752Z,9.60
2022-12-29T05:24:41.000Z,9.70
2022-12-29T05:27:07.482Z,9.70
2022-12-29T05:29:34.170Z,9.70
2022-12-29T05:32:00.745Z,9.80
2022-12-29T05:34:27.290Z,9.80
2022-12-29T05:36:53.835Z,9.80
2022-12-29T05:39:20.367Z,9.80
2022-12-29T05:41:46.872Z,9.80
2022-12-29T05:44:13.362Z,9.80
2022-12-29T05:46:40.016Z,9.90
2022-12-29T05:49:06.510Z,9.90
2022-12-29T05:51:33.085Z,9.90
2022-12-29T05:53:59.699Z,9.90
2022-12-29T05:56:26.239Z,10.00
2022-12-29T05:58:52.786Z,10.00
2022-12-29T06:01:19.331Z,10.10
2022-12-29T06:03:48.435Z,10.10
2022-12-29T06:06:15.237Z,10.10
2022-12-29T06:08:41.721Z,10.00
2022-12-29T06:11:08.274Z,10.10
2022-12-29T06:13:34.770Z,10.10
2022-12-29T06:16:01.351Z,10.10
2022-12-29T06:18:27.986Z,10.10
2022-12-29T06:20:54.465Z,10.00
2022-12-29T06:23:21.135Z,10.00
2022-12-29T06:25:47.647Z,10.00
2022-12-29T06:28:14.130Z,10.00
2022-12-29T06:30:40.776Z,10.00
2022-12-29T06:33:09.155Z,10.10
2022-12-29T06:35:36.002Z,10.10
2022-12-29T06:38:02.618Z,10.10
2022-12-29T06:40:29.162Z,10.00
2022-12-29T06:42:55.711Z,9.90
2022-12-29T06:45:22.221Z,9.90
2022-12-29T06:47:48.734Z,9.80
2022-12-29T06:50:15.222Z,9.80
2022-12-29T06:52:41.749Z,9.70
2022-12-29T06:55:08.253Z,9.60
2022-12-29T06:57:34.804Z,9.50
2022-12-29T07:00:01.414Z,9.50
2022-12-29T07:02:28.044Z,9.60
2022-12-29T07:04:54.619Z,9.60
2022-12-29T07:07:21.120Z,9.60
2022-12-29T07:09:47.660Z,9.60
2022-12-29T07:12:14.416Z,9.60
2022-12-29T07:14:43.954Z,9.60
2022-12-29T07:17:10.640Z,9.60
2022-12-29T07:19:37.305Z,9.60
2022-12-29T07:22:03.906Z,9.60
2022-12-29T07:24:30.781Z,9.60
2022-12-29T07:26:57.310Z,9.50
2022-12-29T07:29:23.881Z,9.50
2022-12-29T07:31:50.438Z,9.50
2022-12-29T07:34:16.958Z,9.50
2022-12-29T07:36:43.784Z,9.50
2022-12-29T07:39:10.393Z,9.50
2022-12-29T07:41:36.952Z,9.50
2022-12-29T07:44:03.456Z,9.40
2022-12-29T07:46:54.605Z,9.40
2022-12-29T07:49:16.456Z,9.40
2022-12-29T07:51:43.019Z,9.30
2022-12-29T07:54:09.529Z,9.20
2022-12-29T07:56:36.027Z,9.20
2022-12-29T07:59:02.670Z,9.20
2022-12-29T08:01:29.397Z,9.20
2022-12-29T08:03:57.775Z,9.10
2022-12-29T08:06:24.495Z,9.10
2022-12-29T08:08:50.981Z,9.10
2022-12-29T08:11:17.455Z,9.00
2022-12-29T08:13:43.989Z,9.00
2022-12-29T08:16:10.567Z,9.10
2022-12-29T08:18:37.172Z,9.10
2022-12-29T08:21:03.893Z,9.00
2022-12-29T08:23:30.385Z,9.00
2022-12-29T08:25:56.885Z,9.00
2022-12-29T08:28:23.388Z,9.00
2022-12-29T08:30:50.280Z,8.90
2022-12-29T08:33:16.802Z,8.90
2022-12-29T08:35:43.325Z,9.00
2022-12-29T08:38:12.169Z,9.00
2022-12-29T08:40:39.074Z,9.00
2022-12-29T08:43:05.987Z,9.00
2022-12-29T08:45:32.478Z,9.00
2022-12-29T08:47:58.951Z,9.00
2022-12-29T08:50:25.465Z,9.00
2022-12-29T08:52:52.056Z,9.00
2022-12-29T08:55:18.541Z,9.00
2022-12-29T08:57:45.049Z,9.00
2022-12-29T09:00:11.553Z,9.00
2022-12-29T09:02:38.331Z,9.10
2022-12-29T09:05:06.035Z,9.10
2022-12-29T09:07:32.758Z,9.20
2022-12-29T09:09:59.238Z,9.10
2022-12-29T09:12:25.801Z,9.10
2022-12-29T09:14:52.304Z,9.10
2022-12-29T09:17:39.791Z,9.10
2022-12-29T09:20:06.349Z,9.10
2022-12-29T09:22:32.907Z,9.20
2022-12-29T09:24:59.435Z,9.20
2022-12-29T09:27:25.981Z,9.20
2022-12-29T09:29:53.219Z,9.20
2022-12-29T09:32:20.414Z,9.20
2022-12-29T09:34:48.429Z,9.20
2022-12-29T09:37:14.949Z,9.30
2022-12-29T09:39:42.859Z,9.30
2022-12-29T09:42:09.456Z,9.40
2022-12-29T09:44:35.979Z,9.50
2022-12-29T09:47:02.677Z,9.50
2022-12-29T09:49:29.265Z,9.60
2022-12-29T09:51:55.783Z,9.60
2022-12-29T09:54:22.398Z,9.70
2022-12-29T09:56:48.913Z,9.80
2022-12-29T09:59:15.408Z,9.90
2022-12-29T10:01:42.048Z,9.90
2022-12-29T10:04:08.644Z,9.80
2022-12-29T10:06:41.354Z,9.70
2022-12-29T10:09:21.844Z,9.60
2022-12-29T10:11:48.387Z,9.60
2022-12-29T10:14:16.307Z,9.60
2022-12-29T10:16:42.968Z,9.60
2022-12-29T10:19:09.977Z,9.60
2022-12-29T10:21:36.503Z,9.50
2022-12-29T10:24:03.027Z,9.50
2022-12-29T10:26:29.610Z,9.50
2022-12-29T10:28:56.144Z,9.50
2022-12-29T10:31:22.781Z,9.50
2022-12-29T10:33:49.395Z,9.50
2022-12-29T10:36:15.970Z,9.50
2022-12-29T10:38:42.469Z,9.50
2022-12-29T10:41:08.967Z,9.50
2022-12-29T10:43:35.785Z,9.50
2022-12-29T10:46:02.360Z,9.50
2022-12-29T10:48:31.959Z,9.50
2022-12-29T10:51:02.008Z,9.50
2022-12-29T10:53:28.866Z,9.60
2022-12-29T10:55:55.388Z,9.60
2022-12-29T10:58:21.879Z,9.80
2022-12-29T11:00:48.497Z,9.90
2022-12-29T11:03:15.087Z,9.80
2022-12-29T11:05:41.649Z,9.70
2022-12-29T11:08:08.298Z,9.90
2022-12-29T11:10:34.867Z,9.80
2022-12-29T11:13:01.434Z,9.80
2022-12-29T11:15:27.964Z,9.70
2022-12-29T11:17:54.730Z,9.60
2022-12-29T11:20:21.245Z,9.60
2022-12-29T11:22:47.766Z,9.60
2022-12-29T11:25:14.287Z,9.60
2022-12-29T11:27:43.068Z,9.60
2022-12-29T11:30:12.323Z,9.60
2022-12-29T11:32:38.874Z,9.60
2022-12-29T11:35:05.395Z,9.60
2022-12-29T11:37:31.979Z,9.60
2022-12-29T11:39:58.471Z,9.60
2022-12-29T11:42:25.007Z,9.60
2022-12-29T11:44:51.503Z,9.60
2022-12-29T11:47:18.025Z,9.60
2022-12-29T11:49:44.558Z,9.60
2022-12-29T11:52:11.068Z,9.60
2022-12-29T11:54:37.564Z,9.60
2022-12-29T11:57:04.089Z,9.60
2022-12-29T11:59:39.902Z,9.60
2022-12-29T12:02:06.685Z,9.60
2022-12-29T12:04:33.275Z,9.60
2022-12-29T12:06:59.933Z,9.60
2022-12-29T12:09:26.520Z,9.60
2022-12-29T12:11:54.715Z,9.60
2022-12-29T12:14:21.422Z,9.60
2022-12-29T12:16:47.992Z,9.60
2022-12-29T12:19:14.481Z,9.60
2022-12-29T12:21:45.455Z,9.60
2022-12-29T12:24:14.421Z,9.50
2022-12-29T12:26:40.974Z,9.60
2022-12-29T12:29:07.563Z,9.60
2022-12-29T12:31:34.149Z,9.60
2022-12-29T12:34:00.690Z,9.50
2022-12-29T12:36:27.189Z,9.50
2022-12-29T12:38:53.726Z,9.60
2022-12-29T12:41:21.956Z,9.60
2022-12-29T12:43:48.797Z,9.50
2022-12-29T12:46:15.345Z,9.50
2022-12-29T12:48:41.877Z,9.50
2022-12-29T12:51:09.233Z,9.50
2022-12-29T12:53:35.721Z,9.60
2022-12-29T12:56:02.216Z,9.50
2022-12-29T12:58:30.312Z,9.50
2022-12-29T13:00:56.813Z,9.50
2022-12-29T13:03:23.463Z,9.50
2022-12-29T13:05:50.058Z,9.50
2022-12-29T13:08:16.545Z,9.40
2022-12-29T13:10:44.964Z,9.40
2022-12-29T13:13:14.949Z,9.30
2022-12-29T13:15:41.891Z,9.20
2022-12-29T13:18:08.758Z,9.10
2022-12-29T13:20:35.282Z,9.10
2022-12-29T13:23:01.789Z,8.90
2022-12-29T13:25:28.370Z,8.80
2022-12-29T13:27:54.909Z,8.70
2022-12-29T13:30:21.515Z,8.60
2022-12-29T13:32:48.057Z,8.40
2022-12-29T13:35:14.546Z,8.40
2022-12-29T13:37:41.059Z,8.30
2022-12-29T13:40:07.573Z,8.30
2022-12-29T13:42:34.062Z,8.30
2022-12-29T13:45:00.558Z,8.40
2022-12-29T13:47:27.130Z,8.40
2022-12-29T13:49:53.653Z,8.40
2022-12-29T13:52:20.311Z,8.50
2022-12-29T13:54:46.815Z,8.50
2022-12-29T13:57:13.301Z,8.50
2022-12-29T13:59:41.792Z,8.60
2022-12-29T14:02:08.461Z,8.60
2022-12-29T14:04:35.949Z,8.60
2022-12-29T14:07:02.525Z,8.60
2022-12-29T14:09:35.136Z,8.70
2022-12-29T14:12:02.045Z,8.70
2022-12-29T14:14:28.729Z,8.80
2022-12-29T14:16:55.336Z,8.90
2022-12-29T14:19:21.921Z,8.90
2022-12-29T14:21:48.418Z,9.00
2022-12-29T14:24:14.918Z,9.00
2022-12-29T14:26:41.478Z,9.00
2022-12-29T14:29:08.062Z,9.00
2022-12-29T14:31:34.649Z,8.90
2022-12-29T14:34:01.233Z,8.90
2022-12-29T14:36:27.774Z,8.90
2022-12-29T14:38:54.259Z,8.90
2022-12-29T14:41:21.408Z,8.90
2022-12-29T14:43:47.971Z,8.90
2022-12-29T14:46:14.608Z,9.00
2022-12-29T14:48:41.196Z,9.00
2022-12-29T14:51:07.683Z,9.00
2022-12-29T14:53:34.365Z,9.10
2022-12-29T14:56:00.899Z,9.10
2022-12-29T14:58:27.535Z,9.00
2022-12-29T15:00:54.298Z,9.00
2022-12-29T15:03:20.870Z,9.00
2022-12-29T15:05:47.455Z,9.00
2022-12-29T15:08:13.995Z,9.00
2022-12-29T15:10:40.525Z,9.00
2022-12-29T15:13:07.043Z,9.00
2022-12-29T15:15:33.526Z,9.00
2022-12-29T15:18:00.109Z,9.00
2022-12-29T15:20:26.626Z,8.90
2022-12-29T15:22:53.149Z,8.90
2022-12-29T15:25:19.645Z,8.80
2022-12-29T15:27:46.154Z,8.80
2022-12-29T15:30:17.653Z,8.80
2022-12-29T15:32:44.685Z,8.80
2022-12-29T15:35:11.180Z,8.80
2022-12-29T15:37:37.683Z,8.80
2022-12-29T15:40:04.547Z,8.80
2022-12-29T15:42:31.120Z,8.80
2022-12-29T15:45:09.524Z,8.80
2022-12-29T15:47:37.048Z,8.80
2022-12-29T15:50:03.722Z,8.80
2022-12-29T15:52:30.422Z,8.70
2022-12-29T15:54:56.938Z,8.70
2022-12-29T15:57:23.780Z,8.70
2022-12-29T15:59:50.280Z,8.70
2022-12-29T16:02:16.964Z,8.70
2022-12-29T16:05:09.213Z,8.60
2022-12-29T16:07:33.236Z,8.60
2022-12-29T16:10:02.395Z,8.60
2022-12-29T16:12:28.956Z,8.60
2022-12-29T16:14:55.464Z,8.60
2022-12-29T16:17:21.985Z,8.60
2022-12-29T16:19:48.491Z,8.60
2022-12-29T16:22:14.981Z,8.60
2022-12-29T16:24:41.537Z,8.50
2022-12-29T16:27:08.051Z,8.50
2022-12-29T16:29:34.539Z,8.50
2022-12-29T16:32:01.717Z,8.50
2022-12-29T16:34:28.566Z,8.50
2022-12-29T16:36:55.110Z,8.60
2022-12-29T16:39:22.972Z,8.60
2022-12-29T16:41:50.128Z,8.50
2022-12-29T16:44:16.674Z,8.50
2022-12-29T16:46:43.179Z,8.50
2022-12-29T16:49:09.791Z,8.50
2022-12-29T16:51:36.332Z,8.50
2022-12-29T16:54:02.864Z,8.50
2022-12-29T16:56:29.696Z,8.50
2022-12-29T16:58:56.885Z,8.50
2022-12-29T17:01:23.672Z,8.40
2022-12-29T17:03:50.310Z,8.40
2022-12-29T17:06:16.882Z,8.40
2022-12-29T17:08:43.408Z,8.40
2022-12-29T17:11:36.331Z,8.40
2022-12-29T17:14:02.809Z,8.40
2022-12-29T17:16:29.475Z,8.30
2022-12-29T17:18:56.005Z,8.30
2022-12-29T17:21:22.501Z,8.30
2022-12-29T17:23:49.056Z,8.30
2022-12-29T17:26:15.540Z,8.30
2022-12-29T17:28:42.045Z,8.30
2022-12-29T17:31:08.928Z,8.30
2022-12-29T17:33:35.528Z,8.30
2022-12-29T17:36:02.037Z,8.30
2022-12-29T17:38:28.549Z,8.30
2022-12-29T17:40:55.034Z,8.30
2022-12-29T17:43:21.636Z,8.30
2022-12-29T17:45:48.392Z,8.20
2022-12-29T17:48:15.002Z,8.20
2022-12-29T17:50:41.486Z,8.20
2022-12-29T17:53:07.995Z,8.10
2022-12-29T17:55:37.968Z,8.10
2022-12-29T17:58:05.256Z,8.10
2022-12-29T18:00:31.937Z,8.00
2022-12-29T18:02:58.655Z,8.00
2022-12-29T18:05:25.781Z,8.00
2022-12-29T18:07:52.393Z,8.00
2022-12-29T18:10:18.940Z,7.90
2022-12-29T18:12:45.469Z,7.90
2022-12-29T18:15:11.977Z,7.90
2022-12-29T18:17:38.481Z,7.90
2022-12-29T18:20:05.103Z,7.80
2022-12-29T18:22:32.150Z,7.80
2022-12-29T18:24:58.692Z,7.80
2022-12-29T18:27:25.226Z,7.80
2022-12-29T18:29:51.768Z,7.80
2022-12-29T18:32:18.440Z,7.70
2022-12-29T18:34:45.038Z,7.70
2022-12-29T18:37:11.645Z,7.70
2022-12-29T18:39:38.206Z,7.70
2022-12-29T18:42:04.700Z,7.60
2022-12-29T18:44:31.250Z,7.70
2022-12-29T18:46:57.841Z,7.60
2022-12-29T18:49:25.384Z,7.60
2022-12-29T18:51:51.942Z,7.50
2022-12-29T18:54:18.472Z,7.50
2022-12-29T18:56:45.033Z,7.50
2022-12-29T18:59:11.819Z,7.50
2022-12-29T19:01:38.446Z,7.40
2022-12-29T19:04:05.048Z,7.40
2022-12-29T19:06:31.561Z,7.30
2022-12-29T19:08:58.064Z,7.30
2022-12-29T19:11:26.092Z,7.30
2022-12-29T19:13:52.758Z,7.40
2022-12-29T19:16:19.400Z,7.40
2022-12-29T19:18:53.403Z,7.40
2022-12-29T19:21:30.560Z,7.40
2022-12-29T19:23:57.046Z,7.30
2022-12-29T19:26:23.538Z,7.30
2022-12-29T19:28:50.050Z,7.20
2022-12-29T19:31:16.594Z,7.20
2022-12-29T19:33:43.177Z,7.10
2022-12-29T19:36:09.688Z,7.10
2022-12-29T19:38:36.326Z,7.10
2022-12-29T19:41:02.840Z,7.00
2022-12-29T19:43:29.343Z,6.90
2022-12-29T19:45:55.895Z,6.90
2022-12-29T19:48:22.398Z,6.90
2022-12-29T19:50:48.943Z,6.90
2022-12-29T19:53:15.552Z,6.90
2022-12-29T19:55:42.198Z,6.80
2022-12-29T19:58:08.804Z,6.90
2022-12-29T20:00:35.380Z,6.80
2022-12-29T20:03:02.025Z,6.80
2022-12-29T20:05:28.639Z,6.80
2022-12-29T20:07:55.136Z,6.80
2022-12-29T20:10:21.662Z,6.80
2022-12-29T20:12:48.189Z,6.80
2022-12-29T20:15:15.029Z,6.80
2022-12-29T20:20:28.208Z,6.80
2022-12-29T20:22:54.728Z,6.80
2022-12-29T20:28:08.325Z,6.80
2022-12-29T20:30:34.838Z,6.80
2022-12-29T20:33:07.643Z,6.80
2022-12-29T20:35:34.744Z,6.80
2022-12-29T20:38:01.321Z,6.80
2022-12-29T20:40:27.873Z,6.80
2022-12-29T20:42:54.402Z,6.80
2022-12-29T20:45:20.884Z,6.90
2022-12-29T20:47:47.454Z,6.90
2022-12-29T20:50:13.985Z,6.90
2022-12-29T20:52:40.554Z,6.90
2022-12-29T20:55:07.106Z,6.90
2022-12-29T20:57:49.918Z,7.00
2022-12-29T21:00:22.618Z,7.00
2022-12-29T21:02:49.758Z,6.90
2022-12-29T21:05:24.795Z,6.90
2022-12-29T21:07:52.084Z,6.90
2022-12-29T21:10:18.608Z,6.90
2022-12-29T21:12:45.109Z,6.80
2022-12-29T21:15:11.832Z,6.80
2022-12-29T21:17:38.387Z,6.80
2022-12-29T21:20:04.917Z,6.80
2022-12-29T21:22:31.415Z,6.80
2022-12-29T21:24:57.941Z,6.70
2022-12-29T21:27:24.468Z,6.70
2022-12-29T21:29:51.014Z,6.70
2022-12-29T21:32:17.479Z,6.60
2022-12-29T21:34:43.987Z,6.60
2022-12-29T21:37:10.515Z,6.60
2022-12-29T21:39:37.016Z,6.60
2022-12-29T21:42:03.543Z,6.60
2022-12-29T21:44:48.908Z,6.60
2022-12-29T21:47:15.579Z,6.60
2022-12-29T21:49:42.081Z,6.60
2022-12-29T21:52:08.612Z,6.60
2022-12-29T21:54:53.896Z,6.60
2022-12-29T21:57:39.115Z,6.60
2022-12-29T22:00:24.603Z,6.60
2022-12-29T22:03:14.607Z,6.50
2022-12-29T22:06:05.800Z,6.50
2022-12-29T22:08:51.032Z,6.50
2022-12-29T22:11:36.347Z,6.50
2022-12-29T22:14:03.407Z,6.50
2022-12-29T22:16:29.991Z,6.50
2022-12-29T22:18:56.583Z,6.50
2022-12-29T22:21:23.067Z,6.40
2022-12-29T22:23:49.579Z,6.40
2022-12-29T22:26:16.133Z,6.40
2022-12-29T22:28:43.109Z,6.40
2022-12-29T22:31:09.650Z,6.40
2022-12-29T22:33:36.202Z,6.40
2022-12-29T22:36:02.742Z,6.40
2022-12-29T22:38:29.335Z,6.40
2022-12-29T22:40:55.852Z,6.30
2022-12-29T22:43:22.505Z,6.30
2022-12-29T22:45:49.006Z,6.30
2022-12-29T22:48:15.540Z,6.30
2022-12-29T22:50:42.145Z,6.20
2022-12-29T22:53:08.681Z,6.20
2022-12-29T22:55:35.212Z,6.20
2022-12-29T22:58:01.709Z,6.20
2022-12-29T23:00:28.196Z,6.20
2022-12-29T23:02:54.951Z,6.10
2022-12-29T23:05:21.565Z,6.10
2022-12-29T23:07:48.083Z,6.10
2022-12-29T23:10:14.573Z,6.10
2022-12-29T23:12:41.089Z,6.10
2022-12-29T23:15:07.638Z,6.10
2022-12-29T23:17:34.203Z,6.00
2022-12-29T23:20:00.736Z,6.00
2022-12-29T23:22:27.265Z,6.00
2022-12-29T23:24:53.900Z,6.00
2022-12-29T23:27:20.472Z,6.00
2022-12-29T23:29:46.997Z,6.00
2022-12-29T23:32:13.552Z,6.00
2022-12-29T23:34:40.049Z,6.00
2022-12-29T23:37:06.554Z,6.00
2022-12-29T23:39:33.083Z,6.00
2022-12-29T23:41:59.584Z,6.00
2022-12-29T23:44:26.136Z,6.00
2022-12-29T23:46:52.740Z,6.00
2022-12-29T23:49:19.379Z,5.90
2022-12-29T23:51:45.926Z,6.00
2022-12-29T23:54:12.545Z,6.00
2022-12-29T23:56:39.375Z,6.00
2022-12-29T23:59:05.994Z,5.90
